createdAt,value
2023-05-08T00:00:00.354Z,5.60
2023-05-08T00:02:28.612Z,5.60
2023-05-08T00:04:57.058Z,5.60
2023-05-08T00:07:26.717Z,5.50
2023-05-08T00:09:54.994Z,5.50
2023-05-08T00:12:23.125Z,5.40
2023-05-08T00:14:51.356Z,5.40
2023-05-08T00:17:19.605Z,5.40
2023-05-08T00:19:50.160Z,5.40
2023-05-08T00:22:18.486Z,5.40
2023-05-08T00:24:55.662Z,5.40
2023-05-08T00:27:27.563Z,5.40
2023-05-08T00:30:04.516Z,5.30
2023-05-08T00:32:33.072Z,5.40
2023-05-08T00:35:06.101Z,5.30
2023-05-08T00:37:34.846Z,5.30
2023-05-08T00:40:04.578Z,5.20
2023-05-08T00:42:32.798Z,5.30
2023-05-08T00:45:03.438Z,5.30
2023-05-08T00:47:32.672Z,5.20
2023-05-08T00:50:01.492Z,5.20
2023-05-08T00:52:32.818Z,5.20
2023-05-08T00:55:01.780Z,5.20
2023-05-08T00:57:35.634Z,5.20
2023-05-08T01:00:05.966Z,5.20
2023-05-08T01:02:34.982Z,5.20
2023-05-08T01:05:04.801Z,5.20
2023-05-08T01:07:33.991Z,5.20
2023-05-08T01:10:02.384Z,5.20
2023-05-08T01:12:39.964Z,5.20
2023-05-08T01:15:13.452Z,5.20
2023-05-08T01:17:52.360Z,5.20
2023-05-08T01:20:36.295Z,5.20
2023-05-08T01:23:55.008Z,5.20
2023-05-08T01:27:06.584Z,5.10
2023-05-08T01:30:02.565Z,5.10
2023-05-08T01:32:37.405Z,5.10
2023-05-08T01:35:18.463Z,5.10
2023-05-08T01:37:54.122Z,5.00
2023-05-08T01:40:33.744Z,5.00
2023-05-08T01:43:13.780Z,5.00
2023-05-08T01:45:46.517Z,5.00
2023-05-08T01:48:21.657Z,4.90
2023-05-08T01:50:53.990Z,4.90
2023-05-08T01:53:25.824Z,4.90
2023-05-08T01:55:58.231Z,4.90
2023-05-08T01:58:28.352Z,4.80
2023-05-08T02:00:58.672Z,4.80
2023-05-08T02:03:28.718Z,4.80
2023-05-08T02:05:57.878Z,4.80
2023-05-08T02:08:27.779Z,4.80
2023-05-08T02:10:58.928Z,4.80
2023-05-08T02:13:30.783Z,4.80
2023-05-08T02:16:03.495Z,4.70
2023-05-08T02:18:33.966Z,4.70
2023-05-08T02:21:05.190Z,4.70
2023-05-08T02:23:35.701Z,4.60
2023-05-08T02:26:07.257Z,4.60
2023-05-08T02:28:37.121Z,4.60
2023-05-08T02:31:07.006Z,4.50
2023-05-08T02:33:38.221Z,4.50
2023-05-08T02:36:12.613Z,4.60
2023-05-08T02:38:42.814Z,4.50
2023-05-08T02:41:13.171Z,4.50
2023-05-08T02:43:41.834Z,4.40
2023-05-08T02:46:15.977Z,4.40
2023-05-08T02:48:56.965Z,4.40
2023-05-08T02:51:30.226Z,4.40
2023-05-08T02:54:11.423Z,4.40
2023-05-08T02:56:48.236Z,4.30
2023-05-08T02:59:20.224Z,4.40
2023-05-08T03:01:53.061Z,4.30
2023-05-08T03:04:30.099Z,4.30
2023-05-08T03:07:00.121Z,4.30
2023-05-08T03:09:35.002Z,4.30
2023-05-08T03:12:07.506Z,4.30
2023-05-08T03:14:42.576Z,4.20
2023-05-08T03:17:14.767Z,4.20
2023-05-08T03:19:48.672Z,4.20
2023-05-08T03:22:22.341Z,4.30
2023-05-08T03:24:52.986Z,4.30
2023-05-08T03:27:22.064Z,4.20
2023-05-08T03:29:54.584Z,4.30
2023-05-08T03:32:25.505Z,4.30
2023-05-08T03:34:56.526Z,4.30
2023-05-08T03:37:24.824Z,4.30
2023-05-08T03:39:53.121Z,4.40
2023-05-08T03:42:22.320Z,4.40
2023-05-08T03:44:52.449Z,4.40
2023-05-08T03:47:21.921Z,4.50
2023-05-08T03:49:51.631Z,4.50
2023-05-08T03:52:21.404Z,4.50
2023-05-08T03:54:53.232Z,4.60
2023-05-08T03:57:21.605Z,4.60
2023-05-08T04:00:02.534Z,4.60
2023-05-08T04:02:51.606Z,4.60
2023-05-08T04:05:27.091Z,4.70
2023-05-08T04:08:04.534Z,4.80
2023-05-08T04:10:43.429Z,4.90
2023-05-08T04:13:15.111Z,4.90
2023-05-08T04:16:00.511Z,4.90
2023-05-08T04:18:35.415Z,5.00
2023-05-08T04:21:09.584Z,5.10
2023-05-08T04:23:41.591Z,5.20
2023-05-08T04:26:11.748Z,5.30
2023-05-08T04:28:40.820Z,5.40
2023-05-08T04:31:09.589Z,5.40
2023-05-08T04:33:38.708Z,5.50
2023-05-08T04:36:12.292Z,5.60
2023-05-08T04:38:42.512Z,5.70
2023-05-08T04:41:11.982Z,5.80
2023-05-08T04:43:40.809Z,5.90
2023-05-08T04:46:10.611Z,6.00
2023-05-08T04:48:43.340Z,6.10
2023-05-08T04:51:11.922Z,6.20
2023-05-08T04:53:43.105Z,6.30
2023-05-08T04:56:12.964Z,6.40
2023-05-08T04:58:41.410Z,6.60
2023-05-08T05:01:10.202Z,6.80
2023-05-08T05:03:41.916Z,7.10
2023-05-08T05:06:10.416Z,7.60
2023-05-08T05:08:38.718Z,8.30
2023-05-08T05:11:07.907Z,9.00
2023-05-08T05:13:42.385Z,9.80
2023-05-08T05:16:10.630Z,10.70
2023-05-08T05:18:38.942Z,11.80
2023-05-08T05:21:07.377Z,12.70
2023-05-08T05:23:35.918Z,13.70
2023-05-08T05:26:07.299Z,14.70
2023-05-08T05:28:37.361Z,15.70
2023-05-08T05:31:06.489Z,16.60
2023-05-08T05:33:34.867Z,17.50
2023-05-08T05:36:06.538Z,18.30
2023-05-08T05:38:35.218Z,19.10
2023-05-08T05:41:03.438Z,19.80
2023-05-08T05:43:31.645Z,20.60
2023-05-08T05:46:06.650Z,21.10
2023-05-08T05:48:36.047Z,21.60
2023-05-08T05:51:04.848Z,22.10
2023-05-08T05:53:33.071Z,22.60
2023-05-08T05:56:01.387Z,23.00
2023-05-08T05:58:30.856Z,23.50
2023-05-08T06:01:01.115Z,24.00
2023-05-08T06:03:30.855Z,24.40
2023-05-08T06:06:02.425Z,24.70
2023-05-08T06:08:32.918Z,25.00
2023-05-08T06:11:01.164Z,25.10
2023-05-08T06:13:29.477Z,25.30
2023-05-08T06:15:57.980Z,25.60
2023-05-08T06:18:26.814Z,26.00
2023-05-08T06:21:00.055Z,26.20
2023-05-08T06:23:28.403Z,26.30
2023-05-08T06:25:56.691Z,26.50
2023-05-08T06:28:26.169Z,26.60
2023-05-08T06:30:56.834Z,26.80
2023-05-08T06:33:27.374Z,27.10
2023-05-08T06:35:55.782Z,27.50
2023-05-08T06:38:25.450Z,27.80
2023-05-08T06:40:54.094Z,28.20
2023-05-08T06:43:22.377Z,28.40
2023-05-08T06:45:50.844Z,28.40
2023-05-08T06:48:19.166Z,28.30
2023-05-08T06:50:48.168Z,28.60
2023-05-08T06:53:16.366Z,28.90
2023-05-08T06:55:46.062Z,29.30
2023-05-08T06:58:14.246Z,29.70
2023-05-08T07:00:43.818Z,30.10
2023-05-08T07:03:12.323Z,30.40
2023-05-08T07:05:40.532Z,30.70
2023-05-08T07:08:08.826Z,30.70
2023-05-08T07:10:37.044Z,31.00
2023-05-08T07:13:06.573Z,31.40
2023-05-08T07:15:34.940Z,31.30
2023-05-08T07:18:03.183Z,31.30
2023-05-08T07:20:31.431Z,31.40
2023-05-08T07:22:59.669Z,31.60
2023-05-08T07:25:27.909Z,31.90
2023-05-08T07:27:56.126Z,31.70
2023-05-08T07:30:25.713Z,31.90
2023-05-08T07:32:56.275Z,32.20
2023-05-08T07:35:24.680Z,32.20
2023-05-08T07:37:52.854Z,32.10
2023-05-08T07:40:21.089Z,32.10
2023-05-08T07:42:52.332Z,32.50
2023-05-08T07:45:20.526Z,32.90
2023-05-08T07:47:54.501Z,33.30
2023-05-08T07:50:23.478Z,33.60
2023-05-08T07:52:51.981Z,33.60
2023-05-08T07:55:21.536Z,33.80
2023-05-08T07:57:49.763Z,33.70
2023-05-08T08:00:18.894Z,33.80
2023-05-08T08:02:47.647Z,33.40
2023-05-08T08:05:17.420Z,33.20
2023-05-08T08:07:45.672Z,32.80
2023-05-08T08:10:13.912Z,32.80
2023-05-08T08:12:42.116Z,33.30
2023-05-08T08:15:11.378Z,33.60
2023-05-08T08:17:39.732Z,34.00
2023-05-08T08:20:09.074Z,34.40
2023-05-08T08:22:39.137Z,34.70
2023-05-08T08:25:08.325Z,34.90
2023-05-08T08:27:37.667Z,35.00
2023-05-08T08:30:16.682Z,35.10
2023-05-08T08:32:46.576Z,35.00
2023-05-08T08:35:15.638Z,35.10
2023-05-08T08:37:45.959Z,34.80
2023-05-08T08:40:14.367Z,33.70
2023-05-08T08:42:42.628Z,32.20
2023-05-08T08:45:12.084Z,30.20
2023-05-08T08:47:43.241Z,28.80
2023-05-08T08:50:14.646Z,28.40
2023-05-08T08:52:55.116Z,28.40
2023-05-08T08:55:24.415Z,28.50
2023-05-08T08:58:01.773Z,28.90
2023-05-08T09:00:32.714Z,29.10
2023-05-08T09:03:01.304Z,28.70
2023-05-08T09:05:30.671Z,29.00
2023-05-08T09:08:01.871Z,29.90
2023-05-08T09:10:30.224Z,30.80
2023-05-08T09:12:58.431Z,31.50
2023-05-08T09:15:26.686Z,32.30
2023-05-08T09:17:54.969Z,32.90
2023-05-08T09:20:23.833Z,33.20
2023-05-08T09:22:53.986Z,33.20
2023-05-08T09:25:26.218Z,32.10
2023-05-08T09:27:54.339Z,30.70
2023-05-08T09:30:25.560Z,29.40
2023-05-08T09:33:03.072Z,29.30
2023-05-08T09:35:37.902Z,29.40
2023-05-08T09:38:06.184Z,29.30
2023-05-08T09:40:36.332Z,28.60
2023-05-08T09:43:14.854Z,27.40
2023-05-08T09:45:43.107Z,26.20
2023-05-08T09:48:12.368Z,25.90
2023-05-08T09:50:42.392Z,25.90
2023-05-08T09:53:11.929Z,26.70
2023-05-08T09:55:50.859Z,27.50
2023-05-08T09:58:19.067Z,27.90
2023-05-08T10:00:47.265Z,28.60
2023-05-08T10:03:15.530Z,29.30
2023-05-08T10:05:43.719Z,29.30
2023-05-08T10:08:23.040Z,29.60
2023-05-08T10:10:53.393Z,30.40
2023-05-08T10:13:21.887Z,30.70
2023-05-08T10:15:55.752Z,31.00
2023-05-08T10:18:27.181Z,31.10
2023-05-08T10:20:57.076Z,31.10
2023-05-08T10:23:28.233Z,31.60
2023-05-08T10:26:05.447Z,32.10
2023-05-08T10:28:38.267Z,32.60
2023-05-08T10:31:09.395Z,33.00
2023-05-08T10:33:42.391Z,33.20
2023-05-08T10:36:13.237Z,32.80
2023-05-08T10:38:43.124Z,32.60
2023-05-08T10:41:13.506Z,32.40
2023-05-08T10:43:44.189Z,32.20
2023-05-08T10:46:20.976Z,32.00
2023-05-08T10:48:57.769Z,31.20
2023-05-08T10:51:39.762Z,31.00
2023-05-08T10:54:14.058Z,30.80
2023-05-08T10:56:43.710Z,30.60
2023-05-08T10:59:20.378Z,30.10
2023-05-08T11:01:50.414Z,29.50
2023-05-08T11:04:22.847Z,29.00
2023-05-08T11:06:53.797Z,28.70
2023-05-08T11:09:30.262Z,28.40
2023-05-08T11:12:08.347Z,27.90
2023-05-08T11:14:41.016Z,27.60
2023-05-08T11:17:10.374Z,27.40
2023-05-08T11:19:39.859Z,27.00
2023-05-08T11:22:30.229Z,26.50
2023-05-08T11:25:00.450Z,26.00
2023-05-08T11:28:04.379Z,25.40
2023-05-08T11:30:39.227Z,25.10
2023-05-08T11:33:18.239Z,25.00
2023-05-08T11:35:54.852Z,25.10
2023-05-08T11:38:25.472Z,25.10
2023-05-08T11:41:02.095Z,25.20
2023-05-08T11:43:57.410Z,25.20
2023-05-08T11:46:39.353Z,25.30
2023-05-08T11:49:11.494Z,25.00
2023-05-08T11:51:44.797Z,24.70
2023-05-08T11:54:15.891Z,24.70
2023-05-08T11:56:46.311Z,24.50
2023-05-08T11:59:17.241Z,23.90
2023-05-08T12:02:06.765Z,23.10
2023-05-08T12:04:45.452Z,23.00
2023-05-08T12:07:13.837Z,22.90
2023-05-08T12:09:42.394Z,23.10
2023-05-08T12:12:10.630Z,23.30
2023-05-08T12:14:38.861Z,23.20
2023-05-08T12:17:08.416Z,22.90
2023-05-08T12:19:36.648Z,22.80
2023-05-08T12:22:04.924Z,22.60
2023-05-08T12:24:33.148Z,21.90
2023-05-08T12:27:01.952Z,21.40
2023-05-08T12:29:30.128Z,21.20
2023-05-08T12:31:58.906Z,20.80
2023-05-08T12:34:28.681Z,20.50
2023-05-08T12:37:06.128Z,20.40
2023-05-08T12:39:38.509Z,20.60
2023-05-08T12:42:06.818Z,20.70
2023-05-08T12:44:35.029Z,21.00
2023-05-08T12:47:03.407Z,21.10
2023-05-08T12:49:33.749Z,21.00
2023-05-08T12:52:06.770Z,21.00
2023-05-08T12:54:38.618Z,21.00
2023-05-08T12:57:13.635Z,21.00
2023-05-08T12:59:42.817Z,20.90
2023-05-08T13:02:16.249Z,20.80
2023-05-08T13:04:48.701Z,20.90
2023-05-08T13:07:17.247Z,20.90
2023-05-08T13:09:58.719Z,21.00
2023-05-08T13:12:27.036Z,20.80
2023-05-08T13:14:55.235Z,20.70
2023-05-08T13:17:24.084Z,20.60
2023-05-08T13:19:55.977Z,20.40
2023-05-08T13:22:26.831Z,20.40
2023-05-08T13:24:55.236Z,20.30
2023-05-08T13:27:23.710Z,20.10
2023-05-08T13:29:52.035Z,20.00
2023-05-08T13:32:20.430Z,19.80
2023-05-08T13:34:51.090Z,19.70
2023-05-08T13:37:21.299Z,19.40
2023-05-08T13:39:49.452Z,19.30
2023-05-08T13:42:19.998Z,19.10
2023-05-08T13:44:48.202Z,19.00
2023-05-08T13:47:16.380Z,19.00
2023-05-08T13:49:47.050Z,19.10
2023-05-08T13:52:15.284Z,19.10
2023-05-08T13:54:44.828Z,19.00
2023-05-08T13:57:13.074Z,19.10
2023-05-08T13:59:41.258Z,19.20
2023-05-08T14:02:09.504Z,19.30
2023-05-08T14:04:37.917Z,19.20
2023-05-08T14:07:06.195Z,19.20
2023-05-08T14:09:34.639Z,19.30
2023-05-08T14:12:04.463Z,19.20
2023-05-08T14:14:34.356Z,19.20
2023-05-08T14:17:02.996Z,19.30
2023-05-08T14:19:31.305Z,19.40
2023-05-08T14:21:59.735Z,19.40
2023-05-08T14:24:28.020Z,19.40
2023-05-08T14:26:56.244Z,19.40
2023-05-08T14:29:25.806Z,19.40
2023-05-08T14:31:54.115Z,19.30
2023-05-08T14:34:24.749Z,19.30
2023-05-08T14:36:52.912Z,19.20
2023-05-08T14:39:21.251Z,19.10
2023-05-08T14:42:10.430Z,19.00
2023-05-08T14:44:40.096Z,19.00
2023-05-08T14:47:08.348Z,19.10
2023-05-08T14:49:38.469Z,19.30
2023-05-08T14:52:07.471Z,19.40
2023-05-08T14:54:36.083Z,19.50
2023-05-08T14:57:04.402Z,19.50
2023-05-08T14:59:32.894Z,19.50
2023-05-08T15:02:02.557Z,19.40
2023-05-08T15:04:30.848Z,19.40
2023-05-08T15:06:59.064Z,19.50
2023-05-08T15:09:29.773Z,19.50
2023-05-08T15:11:57.982Z,19.50
2023-05-08T15:14:27.149Z,19.40
2023-05-08T15:16:55.367Z,19.10
2023-05-08T15:19:24.990Z,18.80
2023-05-08T15:21:53.271Z,18.60
2023-05-08T15:24:24.485Z,18.40
2023-05-08T15:26:52.641Z,18.30
2023-05-08T15:29:20.875Z,18.10
2023-05-08T15:31:49.142Z,18.10
2023-05-08T15:34:17.428Z,18.00
2023-05-08T15:36:46.967Z,18.00
2023-05-08T15:39:15.413Z,17.90
2023-05-08T15:41:43.598Z,17.70
2023-05-08T15:44:13.393Z,17.70
2023-05-08T15:46:41.694Z,17.60
2023-05-08T15:49:09.867Z,17.50
2023-05-08T15:51:38.283Z,17.40
2023-05-08T15:54:07.970Z,17.40
2023-05-08T15:56:36.235Z,17.40
2023-05-08T15:59:04.424Z,17.40
2023-05-08T16:01:32.675Z,17.50
2023-05-08T16:04:00.946Z,17.50
2023-05-08T16:06:29.175Z,17.40
2023-05-08T16:08:57.372Z,17.30
2023-05-08T16:11:27.158Z,17.20
2023-05-08T16:13:55.678Z,17.00
2023-05-08T16:16:23.961Z,17.00
2023-05-08T16:18:52.208Z,17.00
2023-05-08T16:21:20.450Z,16.90
2023-05-08T16:23:48.779Z,16.70
2023-05-08T16:26:17.267Z,16.60
2023-05-08T16:28:47.157Z,16.50
2023-05-08T16:31:15.970Z,16.50
2023-05-08T16:33:44.704Z,16.40
2023-05-08T16:36:13.334Z,16.30
2023-05-08T16:38:41.900Z,16.20
2023-05-08T16:41:10.306Z,16.10
2023-05-08T16:43:38.587Z,16.00
2023-05-08T16:46:08.669Z,16.00
2023-05-08T16:48:36.958Z,15.90
2023-05-08T16:51:08.112Z,15.90
2023-05-08T16:53:36.794Z,15.90
2023-05-08T16:56:05.316Z,15.80
2023-05-08T16:58:38.656Z,15.80
2023-05-08T17:01:08.476Z,15.80
2023-05-08T17:03:37.270Z,15.70
2023-05-08T17:06:08.661Z,15.80
2023-05-08T17:08:37.077Z,15.70
2023-05-08T17:11:05.657Z,15.80
2023-05-08T17:13:33.944Z,15.70
2023-05-08T17:16:02.690Z,15.70
2023-05-08T17:18:32.202Z,15.60
2023-05-08T17:21:05.287Z,15.60
2023-05-08T17:23:36.825Z,15.50
2023-05-08T17:26:05.493Z,15.50
2023-05-08T17:28:34.418Z,15.50
2023-05-08T17:31:02.966Z,15.40
2023-05-08T17:33:38.099Z,15.40
2023-05-08T17:36:12.358Z,15.30
2023-05-08T17:38:45.700Z,15.30
2023-05-08T17:41:14.124Z,15.20
2023-05-08T17:43:42.359Z,15.10
2023-05-08T17:46:10.776Z,15.00
2023-05-08T17:48:40.910Z,15.00
2023-05-08T17:51:13.155Z,15.00
2023-05-08T17:53:41.501Z,14.90
2023-05-08T17:56:11.998Z,14.80
2023-05-08T17:58:40.214Z,14.70
2023-05-08T18:01:08.599Z,14.60
2023-05-08T18:03:40.947Z,14.60
2023-05-08T18:06:09.340Z,14.50
2023-05-08T18:08:38.722Z,14.40
2023-05-08T18:11:19.554Z,14.40
2023-05-08T18:13:50.859Z,14.30
2023-05-08T18:16:26.128Z,14.20
2023-05-08T18:18:59.395Z,14.20
2023-05-08T18:21:28.808Z,14.10
2023-05-08T18:23:57.016Z,13.90
2023-05-08T18:26:25.213Z,13.90
2023-05-08T18:28:53.394Z,13.80
2023-05-08T18:31:21.641Z,13.80
2023-05-08T18:33:49.871Z,13.70
2023-05-08T18:36:19.375Z,13.60
2023-05-08T18:38:47.529Z,13.60
2023-05-08T18:41:15.887Z,13.40
2023-05-08T18:43:44.795Z,13.30
2023-05-08T18:46:13.866Z,13.20
2023-05-08T18:48:45.533Z,13.10
2023-05-08T18:51:13.973Z,13.00
2023-05-08T18:53:45.495Z,12.80
2023-05-08T18:56:13.882Z,12.70
2023-05-08T18:58:42.117Z,12.60
2023-05-08T19:01:10.327Z,12.60
2023-05-08T19:03:38.693Z,12.60
2023-05-08T19:06:07.326Z,12.50
2023-05-08T19:08:37.942Z,12.40
2023-05-08T19:11:07.548Z,12.30
2023-05-08T19:13:35.814Z,12.20
2023-05-08T19:16:04.054Z,12.10
2023-05-08T19:18:32.498Z,12.00
2023-05-08T19:21:01.929Z,11.90
2023-05-08T19:23:30.075Z,11.80
2023-05-08T19:25:58.356Z,11.70
2023-05-08T19:28:28.009Z,11.70
2023-05-08T19:30:56.402Z,11.60
2023-05-08T19:33:24.877Z,11.50
2023-05-08T19:35:53.092Z,11.50
2023-05-08T19:38:21.364Z,11.40
2023-05-08T19:40:57.202Z,11.30
2023-05-08T19:43:27.778Z,11.30
2023-05-08T19:45:56.958Z,11.20
2023-05-08T19:48:25.466Z,11.10
2023-05-08T19:50:55.029Z,11.10
2023-05-08T19:53:26.763Z,11.00
2023-05-08T19:55:57.350Z,10.90
2023-05-08T19:58:27.069Z,10.80
2023-05-08T20:00:55.251Z,10.80
2023-05-08T20:03:23.574Z,10.70
2023-05-08T20:05:52.111Z,10.70
2023-05-08T20:08:20.367Z,10.60
2023-05-08T20:10:49.117Z,10.60
2023-05-08T20:13:17.513Z,10.50
2023-05-08T20:15:47.168Z,10.50
2023-05-08T20:18:15.476Z,10.50
2023-05-08T20:20:45.151Z,10.40
2023-05-08T20:23:13.438Z,10.40
2023-05-08T20:25:41.683Z,10.30
2023-05-08T20:28:12.974Z,10.30
2023-05-08T20:30:41.130Z,10.30
2023-05-08T20:33:10.759Z,10.20
2023-05-08T20:35:39.014Z,10.10
2023-05-08T20:38:07.198Z,10.10
2023-05-08T20:40:35.533Z,10.10
2023-05-08T20:43:03.785Z,10.00
2023-05-08T20:45:32.122Z,10.00
2023-05-08T20:48:00.639Z,9.90
2023-05-08T20:50:32.650Z,9.90
2023-05-08T20:53:03.260Z,9.80
2023-05-08T20:55:31.844Z,9.80
2023-05-08T20:58:00.754Z,9.70
2023-05-08T21:00:29.140Z,9.60
2023-05-08T21:02:57.477Z,9.60
2023-05-08T21:05:25.729Z,9.60
2023-05-08T21:07:58.501Z,9.50
2023-05-08T21:10:28.735Z,9.50
2023-05-08T21:12:57.012Z,9.40
2023-05-08T21:15:25.175Z,9.40
2023-05-08T21:17:54.342Z,9.30
2023-05-08T21:20:22.542Z,9.30
2023-05-08T21:22:55.284Z,9.20
2023-05-08T21:25:23.636Z,9.20
2023-05-08T21:27:53.348Z,9.20
2023-05-08T21:30:22.863Z,9.10
2023-05-08T21:32:51.041Z,9.10
2023-05-08T21:35:19.417Z,9.00
2023-05-08T21:37:47.617Z,9.00
2023-05-08T21:40:17.388Z,8.90
2023-05-08T21:42:45.543Z,8.80
2023-05-08T21:45:14.193Z,8.80
2023-05-08T21:47:42.672Z,8.70
2023-05-08T21:50:13.404Z,8.70
2023-05-08T21:52:41.666Z,8.60
2023-05-08T21:55:10.494Z,8.50
2023-05-08T21:57:40.077Z,8.40
2023-05-08T22:00:09.899Z,8.40
2023-05-08T22:02:47.720Z,8.40
2023-05-08T22:05:16.450Z,8.30
2023-05-08T22:07:44.642Z,8.30
2023-05-08T22:10:13.992Z,8.30
2023-05-08T22:12:43.653Z,8.20
2023-05-08T22:15:25.708Z,8.20
2023-05-08T22:17:57.335Z,8.10
2023-05-08T22:20:25.915Z,8.10
2023-05-08T22:22:56.641Z,8.00
2023-05-08T22:25:25.692Z,8.00
2023-05-08T22:27:55.273Z,8.00
2023-05-08T22:30:23.447Z,7.90
2023-05-08T22:32:55.955Z,7.90
2023-05-08T22:35:26.078Z,7.80
2023-05-08T22:37:55.135Z,7.80
2023-05-08T22:40:23.744Z,7.80
2023-05-08T22:42:53.513Z,7.70
2023-05-08T22:45:23.359Z,7.70
2023-05-08T22:47:51.874Z,7.60
2023-05-08T22:50:20.412Z,7.60
2023-05-08T22:52:53.849Z,7.60
2023-05-08T22:55:22.450Z,7.50
2023-05-08T22:57:58.131Z,7.50
2023-05-08T23:00:27.623Z,7.60
2023-05-08T23:02:56.368Z,7.50
2023-05-08T23:05:24.707Z,7.40
2023-05-08T23:07:52.908Z,7.40
2023-05-08T23:10:21.077Z,7.40
2023-05-08T23:12:51.612Z,7.40
2023-05-08T23:15:22.116Z,7.30
2023-05-08T23:17:51.974Z,7.30
2023-05-08T23:20:23.113Z,7.30
2023-05-08T23:22:53.709Z,7.30
2023-05-08T23:25:21.956Z,7.20
2023-05-08T23:27:50.110Z,7.30
2023-05-08T23:30:18.622Z,7.30
2023-05-08T23:32:46.966Z,7.20
2023-05-08T23:35:16.783Z,7.20
2023-05-08T23:37:45.121Z,7.20
2023-05-08T23:40:13.983Z,7.20
2023-05-08T23:42:42.216Z,7.20
2023-05-08T23:45:12.219Z,7.10
2023-05-08T23:47:40.704Z,7.10
2023-05-08T23:50:12.636Z,7.10
2023-05-08T23:52:42.592Z,7.10
2023-05-08T23:55:11.198Z,7.10
2023-05-08T23:57:39.472Z,7.00
